createdAt,value
2019-05-06T00:05:39.574Z,0.33
2019-05-06T00:15:39.550Z,0.92
2019-05-06T00:25:39.612Z,0.88
2019-05-06T00:35:39.567Z,0.41
2019-05-06T00:45:39.512Z,0.42
2019-05-06T00:55:39.622Z,0.65
2019-05-06T01:05:39.540Z,0.72
2019-05-06T01:15:39.527Z,0.18
2019-05-06T01:25:39.871Z,0.78
2019-05-06T01:35:39.573Z,0.88
2019-05-06T01:45:39.557Z,1.34
2019-05-06T01:55:39.495Z,1.04
2019-05-06T02:05:39.566Z,0.73
2019-05-06T02:15:39.554Z,0.57
2019-05-06T02:25:39.504Z,0.79
2019-05-06T02:35:39.612Z,1.03
2019-05-06T02:45:39.566Z,1.45
2019-05-06T02:55:43.039Z,1.54
2019-05-06T03:05:39.562Z,1.30
2019-05-06T03:15:39.590Z,0.86
2019-05-06T03:25:39.548Z,0.47
2019-05-06T03:35:56.372Z,1.57
2019-05-06T03:45:42.711Z,1.52
2019-05-06T03:55:39.642Z,1.54
2019-05-06T04:05:39.487Z,1.01
2019-05-06T04:15:39.538Z,1.50
2019-05-06T04:25:39.577Z,0.94
2019-05-06T04:35:39.572Z,0.94
2019-05-06T04:45:39.523Z,1.20
2019-05-06T04:55:43.329Z,1.77
2019-05-06T05:05:39.554Z,1.46
2019-05-06T05:15:41.683Z,1.84
2019-05-06T05:25:39.467Z,1.91
2019-05-06T05:35:39.507Z,1.72
2019-05-06T05:45:42.331Z,1.62
2019-05-06T05:55:39.450Z,1.60
2019-05-06T06:05:39.554Z,2.03
2019-05-06T06:15:42.271Z,1.69
2019-05-06T06:25:42.237Z,1.75
2019-05-06T06:35:39.555Z,2.03
2019-05-06T06:45:39.613Z,2.16
2019-05-06T06:55:39.557Z,2.66
2019-05-06T07:05:39.542Z,2.75
2019-05-06T07:15:39.642Z,3.02
2019-05-06T07:25:39.481Z,3.06
2019-05-06T07:35:41.117Z,3.36
2019-05-06T07:45:39.636Z,2.78
2019-05-06T07:55:39.585Z,2.99
2019-05-06T08:05:54.262Z,2.81
2019-05-06T08:15:41.985Z,2.70
2019-05-06T08:25:41.844Z,2.86
2019-05-06T08:35:39.654Z,2.28
2019-05-06T08:45:41.947Z,2.75
2019-05-06T08:55:39.609Z,3.79
2019-05-06T09:05:39.631Z,3.12
2019-05-06T09:15:39.574Z,3.21
2019-05-06T09:25:39.646Z,3.27
2019-05-06T09:35:42.056Z,2.90
2019-05-06T09:45:39.544Z,3.20
2019-05-06T09:55:39.634Z,2.94
2019-05-06T10:05:39.591Z,3.38
2019-05-06T10:15:39.569Z,2.49
2019-05-06T10:25:39.646Z,2.83
2019-05-06T10:35:39.597Z,2.58
2019-05-06T10:45:39.551Z,2.92
2019-05-06T10:55:39.556Z,2.35
2019-05-06T11:05:39.635Z,2.61
2019-05-06T11:15:39.581Z,1.94
2019-05-06T11:25:39.580Z,2.12
2019-05-06T11:35:39.627Z,3.11
2019-05-06T11:45:39.566Z,2.04
2019-05-06T11:55:39.978Z,3.04
2019-05-06T12:05:41.761Z,2.15
2019-05-06T12:15:39.580Z,2.18
2019-05-06T12:25:40.360Z,2.19
2019-05-06T12:35:39.523Z,2.56
2019-05-06T12:45:42.776Z,2.12
2019-05-06T12:55:39.585Z,3.86
2019-05-06T13:05:39.531Z,3.23
2019-05-06T13:15:39.599Z,4.71
2019-05-06T13:25:43.021Z,4.03
2019-05-06T13:35:41.822Z,4.02
2019-05-06T13:45:39.531Z,4.49
2019-05-06T13:55:39.585Z,3.70
2019-05-06T14:05:39.552Z,3.47
2019-05-06T14:15:41.941Z,3.25
2019-05-06T14:25:39.615Z,2.17
2019-05-06T14:35:39.539Z,2.77
2019-05-06T14:45:39.591Z,1.92
2019-05-06T14:55:39.585Z,3.37
2019-05-06T15:05:42.606Z,2.15
2019-05-06T15:15:39.618Z,1.74
2019-05-06T15:25:39.578Z,1.64
2019-05-06T15:35:41.750Z,0.94
2019-05-06T15:45:39.638Z,1.18
2019-05-06T15:55:39.642Z,0.88
2019-05-06T16:05:39.603Z,0.75
2019-05-06T16:15:42.303Z,0.47
2019-05-06T16:25:39.532Z,0.76
2019-05-06T16:35:39.500Z,0.68
2019-05-06T16:45:39.467Z,1.64
2019-05-06T16:55:39.536Z,2.60
2019-05-06T17:05:39.477Z,2.42
2019-05-06T17:15:39.516Z,1.45
2019-05-06T17:25:39.473Z,1.62
2019-05-06T17:35:39.463Z,1.28
2019-05-06T17:45:39.511Z,1.49
2019-05-06T17:55:39.500Z,1.58
2019-05-06T18:05:39.441Z,1.94
2019-05-06T18:15:39.540Z,1.68
2019-05-06T18:25:39.501Z,1.93
2019-05-06T18:35:39.444Z,1.71
2019-05-06T18:45:39.408Z,1.86
2019-05-06T18:55:39.505Z,1.63
2019-05-06T19:05:39.478Z,1.62
2019-05-06T19:15:39.437Z,1.53
2019-05-06T19:25:39.465Z,1.61
2019-05-06T19:35:39.483Z,2.68
2019-05-06T19:45:39.440Z,2.55
2019-05-06T19:55:39.497Z,1.16
2019-05-06T20:05:39.490Z,1.09
2019-05-06T20:15:42.678Z,1.17
2019-05-06T20:25:39.502Z,1.34
2019-05-06T20:35:39.473Z,1.20
2019-05-06T20:45:39.434Z,1.27
2019-05-06T20:55:39.484Z,1.44
2019-05-06T21:05:39.466Z,1.39
2019-05-06T21:15:39.443Z,1.37
2019-05-06T21:25:39.496Z,1.54
2019-05-06T21:35:39.471Z,1.49
2019-05-06T21:45:39.418Z,1.59
2019-05-06T21:55:39.401Z,1.19
2019-05-06T22:05:39.441Z,0.65
2019-05-06T22:15:39.423Z,0.57
2019-05-06T22:25:39.513Z,0.66
2019-05-06T22:35:39.471Z,0.44
2019-05-06T22:45:39.445Z,1.00
2019-05-06T22:55:39.485Z,0.88
2019-05-06T23:05:39.653Z,0.72
2019-05-06T23:15:39.393Z,0.28
2019-05-06T23:25:43.423Z,0.01
2019-05-06T23:35:39.462Z,0.02
2019-05-06T23:45:39.418Z,0.28
2019-05-06T23:55:39.481Z,0.71
